Time;durP1;ratioP1;P1;durP2;ratioP2;P2;SDS_P1;SDS_P2;PMS_P1;PMS_P2;Temp;Humidity;BMP_temperature;BMP_pressure;BME280_temperature;BME280_humidity;BME280_pressure;Samples;Min_cycle;Max_cycle;Signal;HPM_P1;HPM_P2
2023/08/19 00:00:42;;;;;;;36.72;29.40;;;21.00;99.90;;;;;;5056927;28;20063;-88
2023/08/19 00:03:08;;;;;;;28.85;25.83;;;21.00;99.90;;;;;;5057239;28;20514;-88
2023/08/19 00:05:33;;;;;;;34.33;28.98;;;20.90;99.90;;;;;;5051131;28;20360;-88
2023/08/19 00:07:59;;;;;;;32.08;28.67;;;21.00;99.90;;;;;;5053551;28;20037;-88
2023/08/19 00:10:25;;;;;;;32.88;29.38;;;20.90;99.90;;;;;;5053032;28;20100;-88
2023/08/19 00:12:51;;;;;;;30.58;27.38;;;20.90;99.90;;;;;;5036465;28;20037;-87
2023/08/19 00:15:16;;;;;;;30.42;27.38;;;20.90;99.90;;;;;;5054325;28;20060;-88
2023/08/19 00:17:42;;;;;;;31.75;28.45;;;20.90;99.90;;;;;;5037081;28;20045;-88
2023/08/19 00:20:09;;;;;;;31.15;27.95;;;20.90;99.90;;;;;;5053332;28;20083;-88
2023/08/19 00:22:35;;;;;;;32.00;28.38;;;20.90;99.90;;;;;;5036188;28;20080;-88
2023/08/19 00:25:03;;;;;;;34.05;29.88;;;20.90;99.90;;;;;;5053053;28;20045;-87
2023/08/19 00:27:29;;;;;;;31.67;28.33;;;20.80;99.90;;;;;;5047881;28;20057;-87
2023/08/19 00:29:55;;;;;;;34.50;29.83;;;20.80;99.90;;;;;;5048611;28;20060;-87
2023/08/19 00:32:21;;;;;;;31.73;28.35;;;20.70;99.90;;;;;;5036927;28;20044;-88
2023/08/19 00:34:47;;;;;;;31.17;27.65;;;20.70;99.90;;;;;;5055490;28;20044;-88
2023/08/19 00:37:13;;;;;;;32.83;27.88;;;20.60;99.90;;;;;;5056472;28;20044;-87
2023/08/19 00:39:38;;;;;;;27.50;24.67;;;20.60;99.90;;;;;;5056824;28;20040;-87
2023/08/19 00:42:06;;;;;;;34.08;26.10;;;20.50;99.90;;;;;;5037739;28;20499;-88
2023/08/19 00:44:34;;;;;;;31.08;25.98;;;20.50;99.90;;;;;;5036752;28;20053;-88
2023/08/19 00:47:01;;;;;;;29.58;25.70;;;20.40;99.90;;;;;;5036357;28;20494;-88
2023/08/19 00:49:28;;;;;;;27.55;24.42;;;20.30;99.90;;;;;;5045991;28;20093;-87
2023/08/19 00:51:55;;;;;;;26.95;24.10;;;20.30;99.90;;;;;;5043603;28;20498;-88
2023/08/19 00:54:21;;;;;;;32.78;28.42;;;20.30;99.90;;;;;;5052813;28;20081;-87
2023/08/19 00:56:47;;;;;;;27.33;24.55;;;20.30;99.90;;;;;;5052673;28;20068;-88
2023/08/19 00:59:13;;;;;;;26.38;23.58;;;20.30;99.90;;;;;;5043251;28;20045;-88
2023/08/19 01:01:38;;;;;;;27.08;24.25;;;20.30;99.90;;;;;;5052562;28;20052;-87
2023/08/19 01:04:04;;;;;;;27.70;24.70;;;20.20;99.90;;;;;;5036044;28;20393;-87
2023/08/19 01:06:37;;;;;;;24.30;21.67;;;20.20;99.90;;;;;;5052516;28;20076;-87
2023/08/19 01:09:16;;;;;;;25.75;23.05;;;20.20;99.90;;;;;;5035457;28;20170;-87
2023/08/19 01:11:45;;;;;;;24.20;21.58;;;20.20;99.90;;;;;;5052152;28;20059;-88
2023/08/19 01:14:27;;;;;;;27.52;24.73;;;20.20;99.90;;;;;;5043920;28;20025;-87
2023/08/19 01:16:53;;;;;;;;;;;20.20;99.90;;;;;;5050262;28;20040;-88
2023/08/19 01:19:23;;;;;;;27.85;24.15;;;20.10;99.90;;;;;;5049404;28;20007;-88
2023/08/19 01:21:57;;;;;;;27.55;24.55;;;20.10;99.90;;;;;;5035616;28;20047;-88
2023/08/19 01:24:27;;;;;;;24.25;21.75;;;20.10;99.90;;;;;;5039591;28;20124;-87
2023/08/19 01:26:53;;;;;;;28.48;25.02;;;20.10;99.90;;;;;;5035994;28;20059;-87
2023/08/19 01:29:19;;;;;;;30.67;27.20;;;20.00;99.90;;;;;;5036169;28;20513;-87
2023/08/19 01:31:45;;;;;;;31.38;25.05;;;20.00;99.90;;;;;;5036066;28;20809;-87
2023/08/19 01:34:11;;;;;;;28.30;25.30;;;20.00;99.90;;;;;;5037063;28;20033;-87
2023/08/19 01:36:44;;;;;;;25.45;22.75;;;20.10;99.90;;;;;;5055746;28;20041;-88
2023/08/19 01:39:11;;;;;;;25.25;22.70;;;20.10;99.90;;;;;;5043550;28;20032;-88
2023/08/19 01:41:38;;;;;;;23.88;21.00;;;20.20;99.90;;;;;;5035034;28;20041;-88
2023/08/19 01:44:05;;;;;;;28.50;25.00;;;20.10;99.90;;;;;;5035219;28;20045;-88
2023/08/19 01:46:31;;;;;;;25.33;22.67;;;20.10;99.90;;;;;;5051483;28;20048;-88
2023/08/19 01:48:57;;;;;;;26.65;23.23;;;20.10;99.90;;;;;;5051964;28;20129;-88
2023/08/19 01:51:23;;;;;;;25.65;23.17;;;20.10;99.90;;;;;;5035385;28;20052;-87
2023/08/19 01:53:48;;;;;;;25.13;22.48;;;20.10;99.90;;;;;;5035830;28;20047;-87
2023/08/19 01:56:17;;;;;;;28.13;25.13;;;20.20;99.90;;;;;;5036274;28;20488;-88
2023/08/19 01:58:43;;;;;;;24.95;22.40;;;20.20;99.90;;;;;;5041670;28;20037;-88
2023/08/19 02:01:12;;;;;;;24.48;21.55;;;20.20;99.90;;;;;;5051885;28;20089;-88
2023/08/19 02:03:38;;;;;;;23.75;21.40;;;20.10;99.90;;;;;;5034810;28;20045;-88
2023/08/19 02:06:04;;;;;;;24.15;21.52;;;20.10;99.90;;;;;;5045496;28;20041;-88
2023/08/19 02:08:30;;;;;;;26.58;23.77;;;20.10;99.90;;;;;;5059840;28;20045;-88
2023/08/19 02:10:56;;;;;;;28.92;25.83;;;20.10;99.90;;;;;;5034101;28;20130;-88
2023/08/19 02:13:21;;;;;;;29.05;25.90;;;20.10;99.90;;;;;;5034775;28;20067;-87
2023/08/19 02:15:47;;;;;;;32.35;27.52;;;20.10;99.90;;;;;;5051594;28;20043;-88
2023/08/19 02:18:14;;;;;;;27.67;24.77;;;20.10;99.90;;;;;;5034946;28;20120;-88
2023/08/19 02:20:40;;;;;;;29.95;26.70;;;20.10;99.90;;;;;;5033906;28;20045;-87
2023/08/19 02:23:06;;;;;;;29.15;26.08;;;20.10;99.90;;;;;;5051818;28;20051;-88
2023/08/19 02:25:31;;;;;;;29.63;26.52;;;20.10;99.90;;;;;;5035271;28;20853;-87
2023/08/19 02:27:57;;;;;;;28.35;25.30;;;20.10;99.90;;;;;;5051115;28;20151;-87
2023/08/19 02:30:23;;;;;;;32.38;27.98;;;20.10;99.90;;;;;;5051085;28;20123;-87
2023/08/19 02:32:48;;;;;;;28.55;25.48;;;20.00;99.90;;;;;;5050997;28;20120;-87
2023/08/19 02:35:16;;;;;;;27.83;24.90;;;20.10;99.90;;;;;;5050976;28;20511;-87
2023/08/19 02:37:42;;;;;;;22.25;20.05;;;20.00;99.90;;;;;;5051260;28;20045;-87
2023/08/19 02:40:08;;;;;;;29.90;26.60;;;20.00;99.90;;;;;;5059676;28;20059;-87
2023/08/19 02:42:34;;;;;;;25.77;23.17;;;20.10;99.90;;;;;;5039468;28;20045;-87
2023/08/19 02:45:00;;;;;;;29.17;26.02;;;20.10;99.90;;;;;;5036259;28;20045;-87
2023/08/19 02:47:25;;;;;;;27.83;24.48;;;20.10;99.90;;;;;;5018298;28;20033;-87
2023/08/19 02:49:51;;;;;;;30.23;26.40;;;20.10;99.90;;;;;;5018328;28;20370;-87
2023/08/19 02:52:17;;;;;;;29.15;25.42;;;20.10;99.90;;;;;;5035352;28;20512;-87
2023/08/19 02:54:43;;;;;;;27.63;24.80;;;20.10;99.90;;;;;;5037153;28;20493;-87
2023/08/19 02:57:08;;;;;;;29.50;25.88;;;20.00;99.90;;;;;;5033918;28;20473;-87
2023/08/19 02:59:34;;;;;;;31.15;27.33;;;20.00;99.90;;;;;;5035883;28;20702;-87
2023/08/19 03:02:00;;;;;;;32.10;28.58;;;20.00;99.90;;;;;;5034278;28;20557;-87
2023/08/19 03:04:26;;;;;;;30.20;27.00;;;20.00;99.90;;;;;;5051107;28;20362;-87
2023/08/19 03:06:51;;;;;;;29.92;26.65;;;20.00;99.90;;;;;;5033810;28;20044;-87
2023/08/19 03:09:18;;;;;;;32.00;28.60;;;20.00;99.90;;;;;;5017134;28;20036;-87
2023/08/19 03:11:44;;;;;;;33.28;28.52;;;20.00;99.90;;;;;;5036464;28;20128;-87
2023/08/19 03:14:10;;;;;;;31.92;28.38;;;20.00;99.90;;;;;;5017651;28;20115;-87
2023/08/19 03:16:35;;;;;;;31.30;28.08;;;20.00;99.90;;;;;;5034046;28;20041;-87
2023/08/19 03:19:01;;;;;;;30.40;27.20;;;20.00;99.90;;;;;;5054214;28;20139;-87
2023/08/19 03:21:27;;;;;;;30.83;27.63;;;20.00;99.90;;;;;;5047022;28;20090;-87
2023/08/19 03:23:53;;;;;;;34.63;28.83;;;20.00;99.90;;;;;;5041408;28;20083;-87
2023/08/19 03:26:18;;;;;;;31.95;28.27;;;19.90;99.90;;;;;;5049642;28;20044;-87
2023/08/19 03:28:44;;;;;;;29.70;26.35;;;20.00;99.90;;;;;;5050546;28;20041;-87
2023/08/19 03:31:11;;;;;;;32.08;26.90;;;19.90;99.90;;;;;;5035021;28;20549;-87
2023/08/19 03:33:40;;;;;;;29.90;26.75;;;20.00;99.90;;;;;;5020769;28;20485;-87
2023/08/19 03:36:06;;;;;;;30.15;26.95;;;20.00;99.90;;;;;;5047108;28;20369;-87
2023/08/19 03:38:32;;;;;;;32.60;26.10;;;19.90;99.90;;;;;;5037156;28;20048;-87
2023/08/19 03:40:58;;;;;;;31.00;26.70;;;19.90;99.90;;;;;;5037430;28;20052;-87
2023/08/19 03:43:23;;;;;;;28.88;25.83;;;20.00;99.90;;;;;;5053448;28;20077;-87
2023/08/19 03:45:49;;;;;;;27.50;24.48;;;20.00;99.90;;;;;;5004780;28;20049;-87
2023/08/19 03:48:15;;;;;;;34.00;27.60;;;20.00;99.90;;;;;;5037147;28;20040;-87
2023/08/19 03:50:40;;;;;;;27.77;24.88;;;20.00;99.90;;;;;;5037556;28;20404;-87
2023/08/19 03:53:06;;;;;;;30.42;26.77;;;20.00;99.90;;;;;;5037730;28;20045;-87
2023/08/19 03:55:32;;;;;;;28.48;25.48;;;19.90;99.90;;;;;;5037198;28;20036;-87
2023/08/19 03:57:58;;;;;;;26.73;23.95;;;19.90;99.90;;;;;;5037392;28;20041;-87
2023/08/19 04:00:24;;;;;;;27.02;23.98;;;19.90;99.90;;;;;;5037371;28;20041;-87
2023/08/19 04:02:50;;;;;;;29.33;24.58;;;19.90;99.90;;;;;;5021098;28;20079;-87
2023/08/19 04:05:16;;;;;;;25.55;22.85;;;19.90;99.90;;;;;;5045339;28;20123;-87
2023/08/19 04:07:41;;;;;;;25.40;22.70;;;19.90;99.90;;;;;;5049119;28;20040;-87
2023/08/19 04:10:08;;;;;;;27.23;24.40;;;19.90;99.90;;;;;;5049827;28;20411;-87
2023/08/19 04:12:34;;;;;;;27.42;24.52;;;19.80;99.90;;;;;;5036938;28;20132;-87
2023/08/19 04:15:00;;;;;;;27.40;22.60;;;19.80;99.90;;;;;;5052987;28;20044;-87
2023/08/19 04:17:26;;;;;;;27.50;24.42;;;19.80;99.90;;;;;;5053610;28;20049;-87
2023/08/19 04:19:52;;;;;;;28.08;24.50;;;19.70;99.90;;;;;;5037010;28;20370;-86
2023/08/19 04:22:18;;;;;;;30.95;26.08;;;19.70;99.90;;;;;;5053517;28;20037;-87
2023/08/19 04:24:50;;;;;;;25.13;22.20;;;19.70;99.90;;;;;;5036724;28;20032;-87
2023/08/19 04:27:16;;;;;;;27.50;24.70;;;19.80;99.90;;;;;;5054907;28;20392;-87
2023/08/19 04:29:42;;;;;;;29.02;24.52;;;19.80;99.90;;;;;;5038145;28;20045;-87
2023/08/19 04:32:08;;;;;;;25.08;22.38;;;19.80;99.90;;;;;;5044079;28;20052;-86
2023/08/19 04:34:34;;;;;;;26.70;23.38;;;19.80;99.90;;;;;;5036344;28;20037;-87
2023/08/19 04:36:59;;;;;;;25.98;22.83;;;19.80;99.90;;;;;;5053142;28;20392;-87
2023/08/19 04:39:26;;;;;;;26.35;23.52;;;19.90;99.90;;;;;;5037024;28;20037;-87
2023/08/19 04:41:53;;;;;;;24.35;21.73;;;19.90;99.90;;;;;;5052593;28;20032;-87
2023/08/19 04:44:19;;;;;;;26.02;23.23;;;19.90;99.90;;;;;;5052903;28;20049;-87
2023/08/19 04:46:45;;;;;;;28.52;23.50;;;20.00;99.90;;;;;;5053543;28;20041;-87
2023/08/19 04:49:11;;;;;;;24.00;21.48;;;19.90;99.90;;;;;;5036694;28;20472;-87
2023/08/19 04:51:37;;;;;;;25.65;22.20;;;20.00;99.90;;;;;;5052794;28;20163;-86
2023/08/19 04:54:03;;;;;;;24.75;22.15;;;20.00;99.90;;;;;;5044500;28;20052;-87
2023/08/19 04:56:29;;;;;;;28.35;23.17;;;20.00;99.90;;;;;;5036055;28;20041;-87
2023/08/19 04:58:55;;;;;;;23.83;21.13;;;20.10;99.90;;;;;;5052762;28;20033;-87
2023/08/19 05:01:22;;;;;;;24.98;22.38;;;20.10;99.90;;;;;;5036182;28;20037;-87
2023/08/19 05:03:47;;;;;;;24.60;21.73;;;20.10;99.90;;;;;;5036101;28;20032;-87
2023/08/19 05:06:13;;;;;;;24.25;21.67;;;20.10;99.90;;;;;;5052713;28;20480;-87
2023/08/19 05:08:39;;;;;;;22.25;19.95;;;20.20;99.90;;;;;;5036298;28;20094;-87
2023/08/19 05:11:05;;;;;;;24.13;21.60;;;20.20;99.90;;;;;;5036215;28;20053;-87
2023/08/19 05:13:30;;;;;;;22.98;20.48;;;20.20;99.90;;;;;;5036014;28;20127;-87
2023/08/19 05:15:59;;;;;;;23.35;20.23;;;20.30;99.90;;;;;;5052591;28;20071;-87
2023/08/19 05:18:25;;;;;;;23.33;20.58;;;20.40;99.90;;;;;;5052609;28;20037;-87
2023/08/19 05:20:51;;;;;;;22.77;20.25;;;20.40;99.90;;;;;;5034309;28;20546;-87
2023/08/19 05:23:17;;;;;;;22.33;19.92;;;20.50;99.90;;;;;;5035656;28;20060;-87
2023/08/19 05:25:43;;;;;;;23.10;20.60;;;20.50;99.90;;;;;;5037694;28;20048;-87
2023/08/19 05:28:10;;;;;;;22.40;20.00;;;20.50;99.90;;;;;;5043456;28;20048;-87
2023/08/19 05:30:35;;;;;;;24.27;20.42;;;20.60;99.90;;;;;;5053216;28;20037;-87
2023/08/19 05:33:01;;;;;;;22.08;19.77;;;20.60;99.90;;;;;;5035160;28;20400;-86
2023/08/19 05:35:27;;;;;;;22.10;19.77;;;20.70;99.90;;;;;;5035396;28;20040;-87
2023/08/19 05:37:53;;;;;;;22.13;19.90;;;20.70;99.90;;;;;;5045527;28;20103;-87
2023/08/19 05:40:19;;;;;;;22.67;20.27;;;20.70;99.90;;;;;;5057342;28;20102;-87
2023/08/19 05:42:45;;;;;;;22.33;19.60;;;20.70;99.90;;;;;;5054085;28;20102;-87
2023/08/19 05:45:10;;;;;;;22.17;19.73;;;20.70;99.90;;;;;;5053135;28;20049;-86
2023/08/19 05:47:37;;;;;;;21.80;19.42;;;20.70;99.90;;;;;;5034918;28;20043;-87
2023/08/19 05:50:03;;;;;;;21.52;19.13;;;20.70;99.90;;;;;;5065434;28;20074;-87
2023/08/19 05:52:32;;;;;;;20.70;18.48;;;20.70;99.90;;;;;;5038577;28;20049;-87
2023/08/19 05:54:58;;;;;;;22.15;18.40;;;20.70;99.90;;;;;;5030394;28;20501;-88
2023/08/19 05:57:23;;;;;;;19.33;17.33;;;20.70;99.90;;;;;;5056373;28;20040;-88
2023/08/19 05:59:49;;;;;;;20.73;18.05;;;20.70;99.90;;;;;;5043071;28;20037;-87
2023/08/19 06:02:15;;;;;;;19.73;17.63;;;20.80;99.90;;;;;;5035585;28;20144;-86
2023/08/19 06:04:42;;;;;;;19.23;17.13;;;20.80;99.90;;;;;;5051911;28;20041;-86
2023/08/19 06:07:08;;;;;;;19.73;16.70;;;20.90;99.90;;;;;;5051557;28;20103;-85
2023/08/19 06:09:34;;;;;;;17.75;15.70;;;20.90;99.90;;;;;;5034634;28;20064;-86
2023/08/19 06:12:00;;;;;;;19.40;17.30;;;21.00;99.90;;;;;;5034927;28;20045;-86
2023/08/19 06:14:26;;;;;;;18.23;16.02;;;21.00;99.90;;;;;;5034911;28;20412;-86
2023/08/19 06:16:51;;;;;;;18.88;16.15;;;21.00;99.90;;;;;;5048360;28;20040;-86
2023/08/19 06:19:17;;;;;;;20.67;16.25;;;21.10;99.90;;;;;;5048512;28;20040;-87
2023/08/19 06:21:43;;;;;;;17.27;15.63;;;21.10;99.90;;;;;;5051741;28;20045;-86
2023/08/19 06:24:09;;;;;;;17.30;14.88;;;21.10;99.90;;;;;;5035293;28;20076;-86
2023/08/19 06:26:34;;;;;;;17.20;15.38;;;21.10;99.90;;;;;;5031904;28;20045;-87
2023/08/19 06:29:00;;;;;;;18.08;15.85;;;21.10;99.90;;;;;;5041750;28;20040;-88
2023/08/19 06:31:26;;;;;;;16.63;14.95;;;21.20;99.90;;;;;;5026351;28;20501;-86
2023/08/19 06:33:56;;;;;;;19.00;14.32;;;21.20;99.90;;;;;;5051693;28;20252;-88
2023/08/19 06:36:28;;;;;;;17.65;15.18;;;21.30;99.90;;;;;;5034765;28;20041;-87
2023/08/19 06:39:30;;;;;;;17.35;14.38;;;21.30;99.90;;;;;;5051684;28;20392;-86
2023/08/19 06:42:03;;;;;;;16.35;14.00;;;21.30;99.90;;;;;;4950243;28;20482;-86
2023/08/19 06:44:31;;;;;;;16.02;14.32;;;21.30;99.90;;;;;;5026242;28;20091;-86
2023/08/19 06:46:57;;;;;;;16.63;14.40;;;21.30;99.90;;;;;;5017972;28;20095;-87
2023/08/19 06:49:24;;;;;;;17.85;13.57;;;21.30;99.90;;;;;;5034643;28;20072;-90
2023/08/19 06:51:52;;;;;;;14.07;12.65;;;21.30;99.90;;;;;;5035639;28;20041;-88
2023/08/19 06:54:18;;;;;;;16.20;13.02;;;21.30;99.90;;;;;;5051494;28;20127;-87
2023/08/19 06:57:00;;;;;;;14.10;12.57;;;21.30;99.90;;;;;;5042351;28;20048;-86
2023/08/19 06:59:36;;;;;;;15.10;12.27;;;21.30;99.90;;;;;;5033953;28;20041;-86
2023/08/19 07:02:04;;;;;;;13.93;12.43;;;21.40;99.90;;;;;;5051532;28;20049;-86
2023/08/19 07:04:30;;;;;;;14.25;12.75;;;21.40;99.90;;;;;;5067044;28;20067;-85
2023/08/19 07:07:04;;;;;;;13.82;12.27;;;21.40;99.90;;;;;;5031969;28;20499;-86
2023/08/19 07:09:31;;;;;;;13.93;12.40;;;21.40;99.90;;;;;;5044168;28;20113;-87
2023/08/19 07:11:58;;;;;;;15.02;13.30;;;21.50;99.90;;;;;;5034170;28;20307;-88
2023/08/19 07:14:25;;;;;;;15.27;12.80;;;21.50;99.90;;;;;;5063311;28;20102;-85
2023/08/19 07:16:52;;;;;;;17.02;12.68;;;21.50;99.90;;;;;;5056527;28;20079;-87
2023/08/19 07:19:39;;;;;;;16.50;13.02;;;21.60;99.90;;;;;;5037401;28;20055;-85
2023/08/19 07:22:05;;;;;;;16.27;13.05;;;21.60;99.90;;;;;;5053879;28;20044;-84
2023/08/19 07:24:31;;;;;;;13.23;11.82;;;21.60;99.90;;;;;;5035225;28;20087;-85
2023/08/19 07:27:01;;;;;;;16.27;12.30;;;21.60;99.90;;;;;;5025093;28;20548;-87
2023/08/19 07:29:27;;;;;;;14.90;12.80;;;21.70;99.90;;;;;;5053473;28;20097;-85
2023/08/19 07:31:53;;;;;;;13.98;12.57;;;21.60;99.90;;;;;;5025616;28;20084;-86
2023/08/19 07:34:19;;;;;;;14.13;12.07;;;21.70;99.90;;;;;;5036885;28;20048;-85
2023/08/19 07:36:45;;;;;;;15.75;12.95;;;21.70;99.90;;;;;;5033277;28;20041;-86
2023/08/19 07:39:11;;;;;;;13.02;11.48;;;21.70;99.90;;;;;;5037991;28;20115;-87
2023/08/19 07:41:39;;;;;;;13.95;11.90;;;21.70;99.90;;;;;;5033035;28;20072;-88
2023/08/19 07:44:07;;;;;;;13.65;11.73;;;21.80;99.90;;;;;;5041639;28;20083;-86
2023/08/19 07:46:33;;;;;;;12.93;11.73;;;21.80;99.90;;;;;;5029576;28;20056;-88
2023/08/19 07:48:59;;;;;;;12.52;11.20;;;21.80;99.90;;;;;;5051736;28;20492;-87
2023/08/19 07:51:25;;;;;;;13.40;11.50;;;21.80;99.90;;;;;;5032931;28;20075;-84
2023/08/19 07:53:50;;;;;;;11.57;10.20;;;21.90;99.90;;;;;;5056403;28;20032;-85
2023/08/19 07:56:19;;;;;;;12.70;11.30;;;21.90;99.90;;;;;;5033041;28;20047;-86
2023/08/19 07:58:45;;;;;;;11.98;10.43;;;22.00;99.90;;;;;;5037074;28;20032;-85
2023/08/19 08:01:10;;;;;;;13.23;11.05;;;22.00;99.90;;;;;;5020652;28;20048;-85
2023/08/19 08:03:39;;;;;;;12.55;11.23;;;22.10;99.90;;;;;;5060779;28;20128;-84
2023/08/19 08:06:05;;;;;;;11.43;10.25;;;22.10;99.90;;;;;;5024887;28;20392;-85
2023/08/19 08:08:31;;;;;;;13.63;10.23;;;22.20;99.90;;;;;;5063177;28;20048;-85
2023/08/19 08:10:57;;;;;;;12.23;10.90;;;22.30;99.90;;;;;;5051250;28;20067;-84
2023/08/19 08:13:22;;;;;;;11.70;10.43;;;22.30;99.90;;;;;;5026428;28;20084;-87
2023/08/19 08:15:48;;;;;;;11.60;10.15;;;22.30;99.90;;;;;;5040629;28;20070;-85
2023/08/19 08:18:14;;;;;;;13.45;10.63;;;22.40;99.90;;;;;;5044130;28;20033;-84
2023/08/19 08:20:40;;;;;;;13.18;10.02;;;22.50;99.90;;;;;;5037055;28;20111;-84
2023/08/19 08:23:06;;;;;;;10.77;9.68;;;22.60;99.90;;;;;;5043360;28;20528;-85
2023/08/19 08:25:32;;;;;;;11.60;10.27;;;22.60;99.90;;;;;;5037248;28;20033;-84
2023/08/19 08:27:58;;;;;;;10.88;9.73;;;22.60;99.90;;;;;;5045587;28;20049;-87
2023/08/19 08:30:24;;;;;;;12.32;10.55;;;22.70;99.90;;;;;;5053459;28;20052;-85
2023/08/19 08:32:51;;;;;;;10.65;9.30;;;22.80;99.90;;;;;;5036885;28;20114;-84
2023/08/19 08:35:17;;;;;;;10.68;9.57;;;22.80;99.90;;;;;;5062398;28;20037;-85
2023/08/19 08:37:43;;;;;;;10.98;9.80;;;23.00;99.90;;;;;;5040557;28;20132;-84
2023/08/19 08:40:09;;;;;;;10.35;9.25;;;23.00;99.90;;;;;;5025820;28;20123;-86
2023/08/19 08:42:35;;;;;;;11.27;10.10;;;23.10;99.90;;;;;;5066925;28;20098;-85
2023/08/19 08:45:01;;;;;;;11.48;9.55;;;23.20;99.90;;;;;;5067675;28;20041;-85
2023/08/19 08:47:29;;;;;;;10.50;9.40;;;23.30;99.90;;;;;;5047178;28;20051;-87
2023/08/19 08:49:56;;;;;;;11.18;9.15;;;23.40;99.90;;;;;;5034338;28;20057;-86
2023/08/19 08:52:22;;;;;;;11.18;9.00;;;23.50;99.90;;;;;;5034098;28;20046;-84
2023/08/19 08:54:53;;;;;;;11.13;8.93;;;23.60;99.90;;;;;;5017287;28;20367;-86
2023/08/19 08:57:22;;;;;;;10.18;9.05;;;23.70;99.90;;;;;;5044475;28;20072;-84
2023/08/19 08:59:48;;;;;;;11.30;9.10;;;23.90;99.90;;;;;;5071803;28;20082;-84
2023/08/19 09:02:15;;;;;;;10.60;8.38;;;24.00;99.90;;;;;;5065360;28;20048;-90
2023/08/19 09:04:43;;;;;;;12.20;9.00;;;24.20;99.90;;;;;;5057509;28;20045;-88
2023/08/19 09:07:15;;;;;;;10.00;8.70;;;24.20;99.90;;;;;;5072144;28;20048;-84
2023/08/19 09:09:42;;;;;;;9.07;8.15;;;24.30;99.90;;;;;;5055975;28;20052;-86
2023/08/19 09:12:12;;;;;;;9.63;8.35;;;24.40;99.90;;;;;;5037282;28;20056;-85
2023/08/19 09:14:42;;;;;;;9.10;7.63;;;24.40;99.90;;;;;;5050187;28;20086;-83
2023/08/19 09:17:12;;;;;;;8.97;7.67;;;24.50;99.90;;;;;;5037060;28;20044;-83
2023/08/19 09:19:38;;;;;;;9.52;8.02;;;24.50;99.90;;;;;;5053708;28;20037;-83
2023/08/19 09:22:16;;;;;;;8.55;7.72;;;24.50;99.90;;;;;;5052309;28;20045;-83
2023/08/19 09:24:42;;;;;;;8.02;7.22;;;24.50;99.90;;;;;;5047127;28;20066;-83
2023/08/19 09:27:08;;;;;;;7.93;7.07;;;24.60;99.90;;;;;;5059399;28;20047;-83
2023/08/19 09:29:34;;;;;;;8.52;7.32;;;24.70;99.90;;;;;;5052357;28;20124;-83
2023/08/19 09:32:00;;;;;;;10.68;6.70;;;24.70;99.90;;;;;;5032107;28;20123;-84
2023/08/19 09:34:26;;;;;;;7.15;6.45;;;24.80;99.90;;;;;;5036182;28;20071;-85
2023/08/19 09:36:56;;;;;;;7.90;6.53;;;24.80;99.90;;;;;;5055203;28;20041;-84
2023/08/19 09:39:25;;;;;;;7.70;6.47;;;24.80;99.90;;;;;;5023990;28;20033;-84
2023/08/19 09:42:00;;;;;;;8.98;7.32;;;24.90;99.90;;;;;;5034589;28;20094;-84
2023/08/19 09:44:30;;;;;;;8.25;7.32;;;25.20;99.90;;;;;;5046554;28;20068;-84
2023/08/19 09:46:56;;;;;;;8.23;7.00;;;25.40;99.90;;;;;;5034713;28;20380;-87
2023/08/19 09:49:23;;;;;;;8.38;6.50;;;25.50;99.90;;;;;;5045957;28;20388;-85
2023/08/19 09:51:55;;;;;;;7.32;5.97;;;25.60;99.90;;;;;;5054182;28;20040;-85
2023/08/19 09:54:22;;;;;;;9.25;6.57;;;25.60;99.90;;;;;;5054790;28;20064;-85
2023/08/19 09:56:56;;;;;;;6.65;5.88;;;25.60;99.90;;;;;;5053734;28;20032;-84
2023/08/19 09:59:26;;;;;;;10.68;6.60;;;25.60;99.90;;;;;;5034946;28;20104;-85
2023/08/19 10:01:53;;;;;;;8.68;6.40;;;25.60;99.90;;;;;;5037311;28;20041;-85
2023/08/19 10:04:22;;;;;;;7.35;6.47;;;25.50;99.90;;;;;;5031748;28;20489;-86
2023/08/19 10:06:54;;;;;;;6.88;6.10;;;25.60;99.90;;;;;;5017393;28;20457;-86
2023/08/19 10:09:26;;;;;;;7.65;6.68;;;25.70;99.90;;;;;;5034720;28;20049;-85
2023/08/19 10:11:56;;;;;;;8.80;6.35;;;25.90;99.90;;;;;;5043089;28;20386;-85
2023/08/19 10:14:30;;;;;;;7.57;6.75;;;25.90;99.90;;;;;;5051283;28;20095;-85
2023/08/19 10:17:01;;;;;;;7.60;6.55;;;26.00;99.90;;;;;;5035411;28;20076;-84
2023/08/19 10:19:31;;;;;;;9.23;6.63;;;26.00;99.90;;;;;;5035493;28;20040;-86
2023/08/19 10:21:59;;;;;;;9.60;7.18;;;26.00;99.90;;;;;;5050866;28;20280;-85
2023/08/19 10:24:25;;;;;;;8.93;7.00;;;26.00;99.90;;;;;;5034922;28;20040;-84
2023/08/19 10:26:51;;;;;;;8.10;7.30;;;25.90;99.90;;;;;;5051954;28;20447;-84
2023/08/19 10:29:17;;;;;;;7.43;6.72;;;25.80;99.90;;;;;;5050820;28;20033;-86
2023/08/19 10:31:43;;;;;;;8.93;7.97;;;25.80;99.90;;;;;;5025437;28;20044;-83
2023/08/19 10:34:25;;;;;;;9.32;7.45;;;25.70;99.90;;;;;;5034799;28;20106;-84
2023/08/19 10:37:08;;;;;;;9.90;7.50;;;25.70;99.90;;;;;;5053444;28;20072;-84
2023/08/19 10:39:35;;;;;;;9.40;8.02;;;25.60;99.90;;;;;;5051545;28;20051;-83
2023/08/19 10:42:02;;;;;;;9.38;7.70;;;25.50;99.90;;;;;;5037177;28;20048;-83
2023/08/19 10:44:33;;;;;;;9.27;8.02;;;25.40;99.90;;;;;;5050591;28;20148;-83
2023/08/19 10:47:15;;;;;;;9.05;8.18;;;25.40;99.90;;;;;;5059355;28;20118;-84
2023/08/19 10:49:41;;;;;;;12.68;9.13;;;25.30;99.90;;;;;;5019067;28;20098;-83
2023/08/19 10:52:07;;;;;;;11.15;9.13;;;25.20;99.90;;;;;;5032491;28;20044;-83
2023/08/19 10:54:35;;;;;;;11.10;8.57;;;25.10;99.90;;;;;;5034628;28;20045;-83
2023/08/19 10:57:23;;;;;;;9.38;8.40;;;25.00;99.90;;;;;;5053338;28;20080;-82
2023/08/19 10:59:57;;;;;;;10.68;8.43;;;24.90;99.90;;;;;;5034769;28;20530;-86
2023/08/19 11:02:23;;;;;;;9.18;8.10;;;24.90;99.90;;;;;;5034115;28;20085;-82
2023/08/19 11:04:50;;;;;;;9.75;8.05;;;24.80;99.90;;;;;;5023225;28;20084;-83
2023/08/19 11:07:17;;;;;;;9.23;8.20;;;24.80;99.90;;;;;;5050176;28;20037;-83
2023/08/19 11:09:45;;;;;;;9.73;8.77;;;24.80;99.90;;;;;;5049717;28;20060;-82
2023/08/19 11:12:16;;;;;;;11.98;9.23;;;24.70;99.90;;;;;;5033284;28;20053;-82
2023/08/19 11:14:46;;;;;;;9.90;8.95;;;24.70;99.90;;;;;;5050147;28;20033;-82
2023/08/19 11:17:12;;;;;;;11.55;10.50;;;24.70;99.90;;;;;;5049827;28;20041;-82
2023/08/19 11:19:37;;;;;;;13.35;10.40;;;24.70;99.90;;;;;;5020597;28;20460;-82
2023/08/19 11:22:03;;;;;;;12.20;9.77;;;24.70;99.90;;;;;;5033164;28;20045;-82
2023/08/19 11:24:34;;;;;;;12.07;9.93;;;24.70;99.90;;;;;;5036062;28;20048;-82
2023/08/19 11:27:00;;;;;;;13.75;10.60;;;24.70;99.90;;;;;;5033837;28;20044;-82
2023/08/19 11:29:27;;;;;;;11.55;10.35;;;24.80;99.90;;;;;;5016726;28;20045;-83
2023/08/19 11:31:53;;;;;;;13.05;11.02;;;24.80;99.90;;;;;;5033586;28;20427;-82
2023/08/19 11:34:18;;;;;;;12.63;10.70;;;25.00;99.90;;;;;;5032317;28;20033;-83
2023/08/19 11:36:45;;;;;;;14.95;11.82;;;25.20;99.90;;;;;;5034113;28;20040;-85
2023/08/19 11:39:11;;;;;;;12.35;11.10;;;25.30;99.90;;;;;;5026752;28;20500;-85
2023/08/19 11:41:38;;;;;;;15.18;11.95;;;25.50;99.90;;;;;;5033856;28;20099;-83
2023/08/19 11:44:05;;;;;;;15.00;12.02;;;25.60;99.90;;;;;;5050160;28;20497;-85
2023/08/19 11:46:33;;;;;;;13.95;12.40;;;25.60;99.90;;;;;;5052105;28;20408;-84
2023/08/19 11:49:04;;;;;;;14.07;12.52;;;25.60;99.90;;;;;;5050210;28;20060;-84
2023/08/19 11:51:30;;;;;;;14.10;12.60;;;25.60;99.90;;;;;;5033946;28;20390;-84
2023/08/19 11:54:04;;;;;;;18.00;13.35;;;25.50;99.90;;;;;;5036722;28;20050;-84
2023/08/19 11:56:51;;;;;;;15.48;13.57;;;25.50;99.90;;;;;;5033532;28;20041;-83
2023/08/19 11:59:18;;;;;;;14.60;11.65;;;25.50;99.90;;;;;;5029009;28;20044;-83
2023/08/19 12:01:47;;;;;;;15.88;13.13;;;25.50;99.90;;;;;;5054587;28;20037;-83
2023/08/19 12:04:17;;;;;;;14.25;12.52;;;25.60;99.90;;;;;;5037711;28;20084;-83
2023/08/19 12:06:44;;;;;;;15.50;12.18;;;25.70;99.90;;;;;;5054199;28;20118;-83
2023/08/19 12:09:11;;;;;;;17.55;13.73;;;25.80;99.90;;;;;;5013410;28;20098;-83
2023/08/19 12:11:38;;;;;;;19.20;14.05;;;26.00;99.90;;;;;;5021634;28;20065;-84
2023/08/19 12:14:05;;;;;;;16.02;14.13;;;26.20;99.90;;;;;;5057311;28;20052;-84
2023/08/19 12:16:30;;;;;;;16.00;13.52;;;26.30;99.90;;;;;;5039080;28;20043;-84
2023/08/19 12:18:59;;;;;;;19.58;14.95;;;26.40;99.90;;;;;;5017647;28;20392;-84
2023/08/19 12:21:26;;;;;;;19.52;16.55;;;26.60;99.90;;;;;;5035523;28;20033;-87
2023/08/19 12:23:52;;;;;;;21.50;15.88;;;26.70;99.90;;;;;;5043729;28;20048;-85
2023/08/19 12:26:18;;;;;;;17.92;16.02;;;26.70;99.90;;;;;;5053318;28;20121;-84
2023/08/19 12:28:44;;;;;;;18.10;16.30;;;26.60;99.90;;;;;;5036752;28;20125;-85
2023/08/19 12:31:10;;;;;;;19.52;16.25;;;26.60;99.90;;;;;;5036635;28;20076;-84